createdAt,value
2018-12-19T00:00:45.173Z,97028.14
2018-12-19T00:03:14.323Z,97027.95
2018-12-19T00:05:43.673Z,97028.14
2018-12-19T00:08:13.722Z,97022.58
2018-12-19T00:10:44.144Z,97024.02
2018-12-19T00:13:18.405Z,97018.92
2018-12-19T00:15:47.635Z,97029.62
2018-12-19T00:18:16.809Z,97033.88
2018-12-19T00:20:48.678Z,97042.41
2018-12-19T00:23:17.675Z,97036.19
2018-12-19T00:25:47.930Z,97041.42
2018-12-19T00:28:17.170Z,97039.78
2018-12-19T00:30:46.206Z,97039.59
2018-12-19T00:33:14.982Z,97035.86
2018-12-19T00:35:44.645Z,97034.44
2018-12-19T00:38:14.033Z,97032.20
2018-12-19T00:40:43.364Z,97020.31
2018-12-19T00:43:12.565Z,97018.02
2018-12-19T00:45:41.520Z,97024.58
2018-12-19T00:48:10.554Z,97017.84
2018-12-19T00:50:39.679Z,97013.64
2018-12-19T00:53:08.985Z,97024.80
2018-12-19T00:55:37.829Z,97030.41
2018-12-19T00:58:06.818Z,97017.12
2018-12-19T01:00:35.702Z,97013.89
2018-12-19T01:03:04.593Z,97021.52
2018-12-19T01:05:33.444Z,97016.13
2018-12-19T01:08:02.403Z,97022.06
2018-12-19T01:10:31.677Z,97013.75
2018-12-19T01:13:01.303Z,96994.02
2018-12-19T01:15:30.282Z,96997.56
2018-12-19T01:17:59.214Z,96993.41
2018-12-19T01:20:28.416Z,96977.64
2018-12-19T01:22:57.744Z,96950.92
2018-12-19T01:25:27.882Z,96943.16
2018-12-19T01:27:57.002Z,96969.45
2018-12-19T01:30:26.142Z,96987.24
2018-12-19T01:32:55.181Z,97002.84
2018-12-19T01:35:24.127Z,97004.38
2018-12-19T01:37:52.938Z,97022.50
2018-12-19T01:40:25.101Z,97024.70
2018-12-19T01:42:54.223Z,97028.61
2018-12-19T01:45:23.037Z,97012.44
2018-12-19T01:47:53.030Z,97010.94
2018-12-19T01:50:21.753Z,97016.16
2018-12-19T01:52:50.624Z,97021.15
2018-12-19T01:55:19.660Z,97016.27
2018-12-19T01:57:48.549Z,97008.19
2018-12-19T02:00:17.496Z,97012.18
2018-12-19T02:02:46.681Z,97003.72
2018-12-19T02:05:16.213Z,97014.12
2018-12-19T02:07:45.103Z,97018.88
2018-12-19T02:10:14.293Z,97015.98
2018-12-19T02:12:43.160Z,97012.47
2018-12-19T02:15:12.001Z,97019.39
2018-12-19T02:17:41.565Z,97005.92
2018-12-19T02:20:10.492Z,97013.68
2018-12-19T02:22:39.612Z,97018.52
2018-12-19T02:25:08.465Z,97013.31
2018-12-19T02:27:37.343Z,97027.59
2018-12-19T02:30:07.003Z,97024.95
2018-12-19T02:32:35.889Z,97030.99
2018-12-19T02:35:04.638Z,97025.46
2018-12-19T02:37:34.011Z,97018.03
2018-12-19T02:40:02.937Z,97016.20
2018-12-19T02:42:31.706Z,97040.91
2018-12-19T02:45:01.038Z,97046.66
2018-12-19T02:47:29.817Z,97036.52
2018-12-19T02:50:00.164Z,97026.92
2018-12-19T02:52:28.961Z,97026.27
2018-12-19T02:54:58.490Z,97006.77
2018-12-19T02:57:27.326Z,97007.93
2018-12-19T02:59:56.452Z,97015.69
2018-12-19T03:02:25.208Z,97023.41
2018-12-19T03:04:55.090Z,97037.47
2018-12-19T03:07:24.041Z,97054.78
2018-12-19T03:09:52.818Z,97049.03
2018-12-19T03:12:21.758Z,97055.30
2018-12-19T03:14:50.511Z,97044.46
2018-12-19T03:17:19.538Z,97031.25
2018-12-19T03:19:48.314Z,97009.77
2018-12-19T03:22:17.704Z,97015.25
2018-12-19T03:24:46.449Z,97004.09
2018-12-19T03:27:15.180Z,97020.52
2018-12-19T03:29:43.990Z,97007.75
2018-12-19T03:32:12.706Z,96986.55
2018-12-19T03:34:41.945Z,96988.20
2018-12-19T03:37:10.671Z,96976.27
2018-12-19T03:39:39.516Z,96972.56
2018-12-19T03:42:08.454Z,96969.46
2018-12-19T03:44:37.219Z,96971.40
2018-12-19T03:47:06.338Z,96971.80
2018-12-19T03:49:36.110Z,96964.05
2018-12-19T03:52:04.826Z,96967.01
2018-12-19T03:54:33.793Z,96959.21
2018-12-19T03:57:04.649Z,96959.58
2018-12-19T03:59:33.773Z,96959.07
2018-12-19T04:02:02.617Z,96958.08
2018-12-19T04:04:31.685Z,96952.34
2018-12-19T04:07:00.618Z,96949.08
2018-12-19T04:09:29.726Z,96946.52
2018-12-19T04:11:59.207Z,96943.69
2018-12-19T04:14:28.139Z,96928.06
2018-12-19T04:16:56.965Z,96931.55
2018-12-19T04:19:25.792Z,96929.02
2018-12-19T04:21:54.540Z,96928.58
2018-12-19T04:24:24.886Z,96923.86
2018-12-19T04:26:53.929Z,96923.72
2018-12-19T04:29:22.805Z,96926.42
2018-12-19T04:31:51.571Z,96923.91
2018-12-19T04:34:21.203Z,96922.18
2018-12-19T04:36:50.213Z,96918.70
2018-12-19T04:39:19.098Z,96925.00
2018-12-19T04:41:48.537Z,96915.02
2018-12-19T04:44:18.040Z,96916.25
2018-12-19T04:46:46.738Z,96920.89
2018-12-19T04:49:15.649Z,96923.38
2018-12-19T04:51:44.445Z,96934.72
2018-12-19T04:54:13.199Z,96928.69
2018-12-19T04:56:41.993Z,96927.92
2018-12-19T04:59:11.683Z,96924.56
2018-12-19T05:01:41.281Z,96933.20
2018-12-19T05:04:10.346Z,96936.60
2018-12-19T05:06:39.354Z,96927.27
2018-12-19T05:09:09.039Z,96948.34
2018-12-19T05:11:38.197Z,96943.27
2018-12-19T05:14:06.994Z,96940.73
2018-12-19T05:16:36.396Z,96936.34
2018-12-19T05:19:06.073Z,96938.88
2018-12-19T05:21:34.973Z,96938.55
2018-12-19T05:24:04.045Z,96933.34
2018-12-19T05:26:33.601Z,96944.73
2018-12-19T05:29:02.403Z,96939.17
2018-12-19T05:31:31.236Z,96939.20
2018-12-19T05:34:01.212Z,96945.72
2018-12-19T05:36:29.993Z,96953.80
2018-12-19T05:38:58.871Z,96958.48
2018-12-19T05:41:27.568Z,96965.98
2018-12-19T05:43:56.449Z,96965.55
2018-12-19T05:46:25.567Z,96969.13
2018-12-19T05:48:55.625Z,96966.91
2018-12-19T05:51:24.339Z,96956.44
2018-12-19T05:53:53.060Z,96952.86
2018-12-19T05:56:21.785Z,96955.84
2018-12-19T05:58:51.120Z,96965.47
2018-12-19T06:01:19.859Z,96963.05
2018-12-19T06:03:48.796Z,96973.71
2018-12-19T06:06:18.366Z,96979.22
2018-12-19T06:08:47.314Z,96974.44
2018-12-19T06:11:16.666Z,96977.46
2018-12-19T06:13:46.040Z,96971.84
2018-12-19T06:16:14.901Z,96971.53
2018-12-19T06:18:44.191Z,96974.23
2018-12-19T06:21:13.008Z,96985.61
2018-12-19T06:23:41.993Z,96979.20
2018-12-19T06:26:11.081Z,96992.53
2018-12-19T06:28:39.813Z,96989.45
2018-12-19T06:31:09.249Z,96986.79
2018-12-19T06:33:39.020Z,96989.91
2018-12-19T06:36:07.969Z,96989.06
2018-12-19T06:38:50.597Z,96984.59
2018-12-19T06:41:34.506Z,96988.14
2018-12-19T06:44:04.491Z,96986.03
2018-12-19T06:46:33.419Z,97000.81
2018-12-19T06:49:03.074Z,97001.88
2018-12-19T06:51:33.074Z,96998.78
2018-12-19T06:54:02.082Z,97000.70
2018-12-19T06:56:31.177Z,97007.17
2018-12-19T06:59:01.206Z,97006.79
2018-12-19T07:01:31.336Z,97004.86
2018-12-19T07:04:00.166Z,97002.94
2018-12-19T07:06:29.077Z,97008.02
2018-12-19T07:08:57.969Z,97007.92
2018-12-19T07:11:26.813Z,97020.23
2018-12-19T07:13:55.620Z,97011.09
2018-12-19T07:16:24.645Z,97011.52
2018-12-19T07:18:53.395Z,97014.74
2018-12-19T07:21:22.837Z,97010.34
2018-12-19T07:23:51.598Z,97014.72
2018-12-19T07:26:20.896Z,97019.24
2018-12-19T07:28:50.344Z,97023.14
2018-12-19T07:31:19.284Z,97022.45
2018-12-19T07:33:48.350Z,97026.20
2018-12-19T07:36:18.097Z,97030.73
2018-12-19T07:38:47.179Z,97034.96
2018-12-19T07:41:16.782Z,97029.92
2018-12-19T07:43:45.506Z,97035.09
2018-12-19T07:46:19.658Z,97031.53
2018-12-19T07:48:45.599Z,97037.88
2018-12-19T07:51:14.365Z,97044.98
2018-12-19T07:53:43.774Z,97049.55
2018-12-19T07:56:14.446Z,97046.70
2018-12-19T07:58:45.109Z,97053.00
2018-12-19T08:01:13.996Z,97044.91
2018-12-19T08:03:43.090Z,97053.09
2018-12-19T08:06:19.427Z,97050.77
2018-12-19T08:08:48.804Z,97053.11
2018-12-19T08:11:17.864Z,97053.95
2018-12-19T08:13:46.573Z,97065.99
2018-12-19T08:16:15.766Z,97063.81
2018-12-19T08:18:45.273Z,97058.89
2018-12-19T08:21:15.493Z,97058.37
2018-12-19T08:23:44.540Z,97072.42
2018-12-19T08:26:13.328Z,97066.21
2018-12-19T08:28:43.564Z,97071.38
2018-12-19T08:31:12.783Z,97070.95
2018-12-19T08:33:41.696Z,97061.05
2018-12-19T08:36:12.010Z,97066.80
2018-12-19T08:38:42.045Z,97068.16
2018-12-19T08:41:10.869Z,97067.45
2018-12-19T08:43:39.902Z,97073.20
2018-12-19T08:46:14.535Z,97079.78
2018-12-19T08:48:40.917Z,97084.18
2018-12-19T08:51:13.257Z,97081.36
2018-12-19T08:53:42.089Z,97085.47
2018-12-19T08:56:11.307Z,97089.15
2018-12-19T08:58:45.967Z,97081.51
2018-12-19T09:01:24.462Z,97097.51
2018-12-19T09:03:53.250Z,97095.83
2018-12-19T09:06:24.528Z,97099.52
2018-12-19T09:08:54.529Z,97098.55
2018-12-19T09:11:23.459Z,97097.59
2018-12-19T09:13:52.260Z,97089.99
2018-12-19T09:16:22.280Z,97095.89
2018-12-19T09:18:51.296Z,97101.16
2018-12-19T09:21:20.168Z,97102.08
2018-12-19T09:23:49.570Z,97104.58
2018-12-19T09:26:18.578Z,97106.06
2018-12-19T09:28:47.533Z,97109.22
2018-12-19T09:31:17.010Z,97109.31
2018-12-19T09:33:45.900Z,97114.47
2018-12-19T09:36:14.820Z,97105.36
2018-12-19T09:38:43.657Z,97109.12
2018-12-19T09:41:13.408Z,97112.36
2018-12-19T09:43:42.849Z,97111.48
2018-12-19T09:46:13.271Z,97119.95
2018-12-19T09:48:43.469Z,97118.28
2018-12-19T09:51:12.624Z,97122.88
2018-12-19T09:53:41.739Z,97126.13
2018-12-19T09:56:12.366Z,97127.59
2018-12-19T09:58:41.976Z,97122.40
2018-12-19T10:01:13.867Z,97127.22
2018-12-19T10:03:44.436Z,97120.80
2018-12-19T10:06:15.275Z,97123.00
2018-12-19T10:08:44.233Z,97122.36
2018-12-19T10:11:18.628Z,97119.25
2018-12-19T10:13:44.357Z,97121.66
2018-12-19T10:16:13.659Z,97114.47
2018-12-19T10:18:42.548Z,97123.22
2018-12-19T10:21:11.293Z,97124.91
2018-12-19T10:23:40.126Z,97121.22
2018-12-19T10:26:12.827Z,97118.81
2018-12-19T10:28:41.866Z,97118.63
2018-12-19T10:31:10.969Z,97117.13
2018-12-19T10:33:39.704Z,97105.84
2018-12-19T10:36:08.419Z,97110.12
2018-12-19T10:38:37.737Z,97104.16
2018-12-19T10:41:06.599Z,97105.88
2018-12-19T10:43:35.542Z,97103.59
2018-12-19T10:46:04.617Z,97104.48
2018-12-19T10:48:33.558Z,97099.45
2018-12-19T10:51:02.417Z,97097.20
2018-12-19T10:53:31.243Z,97093.80
2018-12-19T10:56:00.165Z,97093.08
2018-12-19T10:58:28.981Z,97095.30
2018-12-19T11:01:01.051Z,97086.52
2018-12-19T11:03:29.889Z,97090.04
2018-12-19T11:05:59.354Z,97093.08
2018-12-19T11:08:28.068Z,97093.60
2018-12-19T11:10:56.926Z,97090.28
2018-12-19T11:13:26.103Z,97088.72
2018-12-19T11:15:55.382Z,97092.88
2018-12-19T11:18:25.336Z,97085.53
2018-12-19T11:20:54.579Z,97083.58
2018-12-19T11:23:23.540Z,97078.26
2018-12-19T11:25:54.208Z,97075.20
2018-12-19T11:28:23.275Z,97077.38
2018-12-19T11:30:52.738Z,97076.38
2018-12-19T11:33:22.185Z,97071.59
2018-12-19T11:35:51.035Z,97075.67
2018-12-19T11:38:20.419Z,97077.42
2018-12-19T11:40:49.159Z,97077.43
2018-12-19T11:43:18.142Z,97069.91
2018-12-19T11:45:48.421Z,97072.32
2018-12-19T11:48:17.438Z,97071.08
2018-12-19T11:50:46.403Z,97069.92
2018-12-19T11:53:16.240Z,97067.12
2018-12-19T11:55:45.033Z,97069.61
2018-12-19T11:58:15.626Z,97056.44
2018-12-19T12:00:48.058Z,97062.92
2018-12-19T12:03:17.416Z,97062.52
2018-12-19T12:05:46.382Z,97063.24
2018-12-19T12:08:16.160Z,97065.97
2018-12-19T12:10:45.299Z,97063.16
2018-12-19T12:13:14.587Z,97067.97
2018-12-19T12:15:43.603Z,97063.69
2018-12-19T12:18:12.468Z,97059.08
2018-12-19T12:20:41.309Z,97057.64
2018-12-19T12:25:47.398Z,97059.61
2018-12-19T12:28:16.573Z,97055.12
2018-12-19T12:30:45.566Z,97055.64
2018-12-19T12:33:14.748Z,97052.19
2018-12-19T12:35:44.298Z,97050.10
2018-12-19T12:38:13.582Z,97041.62
2018-12-19T12:40:43.706Z,97043.39
2018-12-19T12:43:14.046Z,97039.62
2018-12-19T12:45:43.075Z,97039.62
2018-12-19T12:48:13.098Z,97035.84
2018-12-19T12:50:42.357Z,97030.92
2018-12-19T12:53:12.806Z,97032.41
2018-12-19T12:55:43.308Z,97029.88
2018-12-19T12:58:12.335Z,97023.40
2018-12-19T13:00:41.839Z,97031.69
2018-12-19T13:03:11.627Z,97026.32
2018-12-19T13:05:40.527Z,97026.95
2018-12-19T13:08:09.688Z,97028.52
2018-12-19T13:10:40.480Z,97027.80
2018-12-19T13:13:09.756Z,97028.64
2018-12-19T13:15:44.162Z,97029.06
2018-12-19T13:18:14.666Z,97025.91
2018-12-19T13:20:44.363Z,97030.00
2018-12-19T13:23:13.328Z,97018.06
2018-12-19T13:25:44.434Z,97025.27
2018-12-19T13:28:14.432Z,97023.18
2018-12-19T13:30:43.712Z,97026.63
2018-12-19T13:33:12.806Z,97034.91
2018-12-19T13:35:42.120Z,97029.67
2018-12-19T13:38:11.856Z,97032.73
2018-12-19T13:40:42.762Z,97029.39
2018-12-19T13:43:12.714Z,97024.28
2018-12-19T13:45:41.730Z,97029.16
2018-12-19T13:48:10.633Z,97020.89
2018-12-19T13:50:41.965Z,97028.09
2018-12-19T13:53:12.572Z,97014.60
2018-12-19T13:55:42.093Z,97012.81
2018-12-19T13:58:10.956Z,97014.38
2018-12-19T14:00:39.871Z,97014.70
2018-12-19T14:03:08.976Z,97022.02
2018-12-19T14:05:38.804Z,97008.30
2018-12-19T14:08:07.718Z,97010.81
2018-12-19T14:10:36.651Z,97014.06
2018-12-19T14:13:05.962Z,97017.62
2018-12-19T14:15:34.829Z,97019.18
2018-12-19T14:18:04.072Z,97019.58
2018-12-19T14:20:32.983Z,97013.82
2018-12-19T14:23:01.888Z,97010.98
2018-12-19T14:25:30.771Z,97017.58
2018-12-19T14:28:00.105Z,97020.09
2018-12-19T14:30:29.206Z,97020.37
2018-12-19T14:32:58.018Z,97025.17
2018-12-19T14:35:28.154Z,97020.69
2018-12-19T14:37:57.360Z,97026.84
2018-12-19T14:40:26.729Z,97023.97
2018-12-19T14:42:55.577Z,97034.11
2018-12-19T14:45:24.556Z,97025.94
2018-12-19T14:47:53.426Z,97024.46
2018-12-19T14:50:23.259Z,97028.42
2018-12-19T14:52:52.198Z,97024.45
2018-12-19T14:55:21.793Z,97027.55
2018-12-19T14:57:50.634Z,97024.30
2018-12-19T15:00:19.726Z,97021.14
2018-12-19T15:02:49.486Z,97018.42
2018-12-19T15:05:20.503Z,97018.69
2018-12-19T15:07:49.731Z,97010.34
2018-12-19T15:10:18.990Z,97011.31
2018-12-19T15:12:47.835Z,97006.72
2018-12-19T15:15:16.729Z,97000.34
2018-12-19T15:17:45.617Z,96996.78
2018-12-19T15:20:15.365Z,96996.06
2018-12-19T15:22:44.218Z,96988.09
2018-12-19T15:25:13.821Z,96987.22
2018-12-19T15:27:42.713Z,96977.20
2018-12-19T15:30:11.615Z,96978.78
2018-12-19T15:32:41.590Z,96984.21
2018-12-19T15:35:10.462Z,96985.56
2018-12-19T15:37:39.306Z,96995.92
2018-12-19T15:40:09.337Z,96994.56
2018-12-19T15:42:38.264Z,96996.95
2018-12-19T15:45:10.241Z,97001.84
2018-12-19T15:47:40.573Z,97004.20
2018-12-19T15:50:10.442Z,97011.03
2018-12-19T15:52:39.294Z,97010.90
2018-12-19T15:55:08.525Z,97015.95
2018-12-19T15:57:37.356Z,97009.86
2018-12-19T16:00:08.495Z,97015.95
2018-12-19T16:02:37.335Z,97011.87
2018-12-19T16:05:06.213Z,97016.75
2018-12-19T16:07:35.017Z,97022.77
2018-12-19T16:10:04.241Z,97025.16
2018-12-19T16:12:39.241Z,97024.36
2018-12-19T16:15:07.785Z,97023.84
2018-12-19T16:17:36.703Z,97017.79
2018-12-19T16:20:07.031Z,97021.44
2018-12-19T16:22:36.299Z,97020.83
2018-12-19T16:25:05.567Z,97017.56
2018-12-19T16:27:34.463Z,97022.55
2018-12-19T16:30:03.667Z,97026.72
2018-12-19T16:32:32.648Z,97024.06
2018-12-19T16:35:01.483Z,97028.98
2018-12-19T16:37:31.110Z,97025.78
2018-12-19T16:40:00.259Z,97025.06
2018-12-19T16:42:29.655Z,97025.45
2018-12-19T16:44:58.762Z,97022.34
2018-12-19T16:47:27.666Z,97023.06
2018-12-19T16:49:56.806Z,97025.52
2018-12-19T16:52:25.630Z,97025.65
2018-12-19T16:54:55.044Z,97030.59
2018-12-19T16:57:24.572Z,97026.77
2018-12-19T16:59:53.494Z,97032.92
2018-12-19T17:02:22.455Z,97036.09
2018-12-19T17:04:52.156Z,97038.38
2018-12-19T17:07:21.261Z,97040.19
2018-12-19T17:09:50.388Z,97038.70
2018-12-19T17:12:19.296Z,97030.68
2018-12-19T17:14:48.529Z,97034.56
2018-12-19T17:17:18.670Z,97034.78
2018-12-19T17:19:48.103Z,97027.47
2018-12-19T17:22:16.998Z,97026.23
2018-12-19T17:24:45.885Z,97017.66
2018-12-19T17:27:14.717Z,97018.62
2018-12-19T17:29:43.569Z,97010.57
2018-12-19T17:32:13.120Z,97013.37
2018-12-19T17:34:41.991Z,97012.98
2018-12-19T17:37:12.634Z,97011.00
2018-12-19T17:39:41.554Z,97013.19
2018-12-19T17:42:10.807Z,97017.36
2018-12-19T17:44:39.845Z,97015.45
2018-12-19T17:47:09.153Z,97014.66
2018-12-19T17:49:38.898Z,97017.60
2018-12-19T17:52:08.521Z,97015.92
2018-12-19T17:54:37.393Z,97006.77
2018-12-19T17:57:06.216Z,97015.86
2018-12-19T17:59:36.096Z,97011.78
2018-12-19T18:02:05.075Z,97005.83
2018-12-19T18:04:33.918Z,97011.91
2018-12-19T18:07:02.750Z,97006.36
2018-12-19T18:09:31.862Z,97010.10
2018-12-19T18:12:00.735Z,97014.50
2018-12-19T18:14:29.955Z,97017.54
2018-12-19T18:16:58.852Z,97018.19
2018-12-19T18:19:28.024Z,97013.16
2018-12-19T18:21:57.343Z,97016.52
2018-12-19T18:24:26.242Z,97019.03
2018-12-19T18:26:55.126Z,97019.67
2018-12-19T18:29:24.495Z,97017.16
2018-12-19T18:31:53.933Z,97018.52
2018-12-19T18:34:23.297Z,97018.00
2018-12-19T18:36:52.307Z,97021.44
2018-12-19T18:39:26.072Z,97014.23
2018-12-19T18:41:52.787Z,97017.48
2018-12-19T18:44:22.044Z,97012.69
2018-12-19T18:46:51.046Z,97013.41
2018-12-19T18:49:19.882Z,97014.41
2018-12-19T18:51:48.725Z,97011.13
2018-12-19T18:54:17.611Z,97011.13
2018-12-19T18:56:46.962Z,97020.64
2018-12-19T18:59:15.829Z,97021.05
2018-12-19T19:01:44.835Z,97016.61
2018-12-19T19:04:13.806Z,97004.56
2018-12-19T19:06:42.804Z,97011.48
2018-12-19T19:09:11.649Z,97009.92
2018-12-19T19:11:41.934Z,97000.69
2018-12-19T19:14:10.855Z,97004.69
2018-12-19T19:16:39.875Z,96998.41
2018-12-19T19:19:08.713Z,96996.93
2018-12-19T19:21:37.727Z,96987.53
2018-12-19T19:24:06.546Z,96986.89
2018-12-19T19:26:35.849Z,96991.94
2018-12-19T19:29:04.783Z,96981.89
2018-12-19T19:31:34.114Z,96982.20
2018-12-19T19:34:02.971Z,96985.01
2018-12-19T19:36:32.386Z,96987.53
2018-12-19T19:39:01.222Z,96992.13
2018-12-19T19:41:30.612Z,96995.69
2018-12-19T19:43:59.526Z,96994.45
2018-12-19T19:46:28.462Z,96996.65
2018-12-19T19:48:57.710Z,96991.30
2018-12-19T19:51:26.614Z,96991.30
2018-12-19T19:53:56.252Z,96986.38
2018-12-19T19:56:25.566Z,96989.65
2018-12-19T19:58:54.677Z,96991.85
2018-12-19T20:01:23.559Z,96990.29
2018-12-19T20:03:52.460Z,96992.58
2018-12-19T20:06:21.656Z,96994.45
2018-12-19T20:08:51.285Z,96998.66
2018-12-19T20:11:20.470Z,96992.58
2018-12-19T20:13:49.462Z,96995.81
2018-12-19T20:16:18.467Z,96998.97
2018-12-19T20:18:47.638Z,97001.49
2018-12-19T20:21:16.969Z,96998.66
2018-12-19T20:23:45.830Z,96999.50
2018-12-19T20:26:14.646Z,96992.69
2018-12-19T20:28:43.474Z,96999.09
2018-12-19T20:31:12.652Z,96992.48
2018-12-19T20:33:41.738Z,96994.38
2018-12-19T20:36:11.125Z,96989.56
2018-12-19T20:38:39.927Z,96988.64
2018-12-19T20:41:08.930Z,96994.37
2018-12-19T20:43:40.136Z,96991.56
2018-12-19T20:46:08.767Z,96997.32
2018-12-19T20:48:37.768Z,96988.84
2018-12-19T20:51:07.062Z,97001.69
2018-12-19T20:53:35.932Z,96995.01
2018-12-19T20:56:04.962Z,96991.65
2018-12-19T20:58:33.865Z,96997.61
2018-12-19T21:01:02.889Z,96991.13
2018-12-19T21:03:31.841Z,96994.69
2018-12-19T21:06:01.450Z,96985.37
2018-12-19T21:08:30.780Z,96986.41
2018-12-19T21:10:59.934Z,96979.52
2018-12-19T21:13:29.128Z,96986.33
2018-12-19T21:15:59.085Z,96984.84
2018-12-19T21:18:33.767Z,96980.77
2018-12-19T21:21:02.755Z,96983.17
2018-12-19T21:23:31.673Z,96984.13
2018-12-19T21:26:00.938Z,96976.80
2018-12-19T21:28:31.427Z,96977.41
2018-12-19T21:31:00.624Z,96978.56
2018-12-19T21:33:31.600Z,96979.00
2018-12-19T21:36:01.024Z,96981.17
2018-12-19T21:38:30.249Z,96980.77
2018-12-19T21:41:00.995Z,96988.20
2018-12-19T21:43:29.966Z,96981.38
2018-12-19T21:45:58.843Z,96988.49
2018-12-19T21:48:28.100Z,96989.97
2018-12-19T21:50:56.981Z,96983.14
2018-12-19T21:53:25.810Z,96990.89
2018-12-19T21:55:54.768Z,96993.17
2018-12-19T21:58:23.774Z,96983.77
2018-12-19T22:00:53.009Z,96977.81
2018-12-19T22:03:22.358Z,96976.33
2018-12-19T22:05:51.451Z,96983.25
2018-12-19T22:08:20.486Z,96981.37
2018-12-19T22:10:49.346Z,96981.05
2018-12-19T22:13:18.335Z,96981.25
2018-12-19T22:15:47.856Z,96990.13
2018-12-19T22:18:22.007Z,96982.92
2018-12-19T22:20:51.072Z,96983.65
2018-12-19T22:23:20.175Z,96986.56
2018-12-19T22:25:49.049Z,96989.36
2018-12-19T22:28:17.962Z,96997.20
2018-12-19T22:30:48.272Z,96986.73
2018-12-19T22:33:17.192Z,96991.20
2018-12-19T22:35:46.057Z,96991.95
2018-12-19T22:38:14.930Z,96990.67
2018-12-19T22:40:43.828Z,96996.31
2018-12-19T22:43:12.773Z,96991.91
2018-12-19T22:45:42.075Z,96990.86
2018-12-19T22:48:10.990Z,96988.78
2018-12-19T22:50:40.734Z,96984.78
2018-12-19T22:53:09.702Z,96991.25
2018-12-19T22:55:38.529Z,96984.98
2018-12-19T22:58:07.914Z,96988.97
2018-12-19T23:02:43.594Z,96992.40
2018-12-19T23:05:12.639Z,96989.76
2018-12-19T23:07:41.532Z,96988.92
2018-12-19T23:10:10.607Z,96989.95
2018-12-19T23:12:39.893Z,96985.98
2018-12-19T23:15:08.991Z,96990.13
2018-12-19T23:17:40.996Z,96990.97
2018-12-19T23:20:11.280Z,96988.45
2018-12-19T23:22:40.338Z,96986.48
2018-12-19T23:25:09.722Z,96980.60
2018-12-19T23:27:38.905Z,96982.80
2018-12-19T23:30:08.970Z,96983.00
2018-12-19T23:32:38.049Z,96976.92
2018-12-19T23:35:07.209Z,96980.16
2018-12-19T23:37:36.332Z,96970.03
2018-12-19T23:40:05.796Z,96974.63
2018-12-19T23:42:34.762Z,96982.85
2018-12-19T23:45:03.749Z,96971.86
2018-12-19T23:47:32.727Z,96968.53
2018-12-19T23:50:01.748Z,96972.09
2018-12-19T23:52:30.886Z,96966.84
2018-12-19T23:54:59.838Z,96958.25
2018-12-19T23:57:28.876Z,96957.93
2018-12-19T23:59:57.753Z,96962.43
